createdAt,value
2022-12-16T00:03:09.855Z,98364.47
2022-12-16T00:08:12.778Z,98364.47
2022-12-16T00:13:15.677Z,98351.84
2022-12-16T00:18:20.292Z,98352.81
2022-12-16T00:23:23.580Z,98350.19
2022-12-16T00:28:26.896Z,98358.25
2022-12-16T00:33:31.771Z,98361.75
2022-12-16T00:38:35.137Z,98367.09
2022-12-16T00:43:38.024Z,98360.09
2022-12-16T00:48:42.287Z,98362.75
2022-12-16T00:53:45.293Z,98367.22
2022-12-16T00:58:48.436Z,98356.19
2022-12-16T01:03:52.669Z,98354.63
2022-12-16T01:08:55.817Z,98352.06
2022-12-16T01:13:59.620Z,98367.28
2022-12-16T01:19:04.082Z,98380.53
2022-12-16T01:24:07.575Z,98372.81
2022-12-16T01:29:10.473Z,98361.66
2022-12-16T01:34:14.769Z,98357.09
2022-12-16T01:39:18.615Z,98360.78
2022-12-16T01:44:24.970Z,98362.50
2022-12-16T01:49:35.148Z,98363.13
2022-12-16T01:54:43.399Z,98359.50
2022-12-16T01:59:51.410Z,98338.66
2022-12-16T02:05:14.786Z,98341.34
2022-12-16T02:10:17.839Z,98335.81
2022-12-16T02:15:30.991Z,98337.97
2022-12-16T02:21:13.659Z,98332.72
2022-12-16T02:26:39.965Z,98332.47
2022-12-16T02:31:53.101Z,98325.72
2022-12-16T02:37:08.623Z,98312.13
2022-12-16T02:42:17.555Z,98314.81
2022-12-16T02:47:22.060Z,98308.34
2022-12-16T02:52:27.431Z,98302.16
2022-12-16T02:57:47.116Z,98306.66
2022-12-16T03:02:58.598Z,98299.66
2022-12-16T03:08:06.056Z,98301.19
2022-12-16T03:13:11.898Z,98293.81
2022-12-16T03:18:17.670Z,98288.81
2022-12-16T03:23:26.794Z,98277.91
2022-12-16T03:28:39.653Z,98287.31
2022-12-16T03:33:49.081Z,98278.16
2022-12-16T03:38:52.878Z,98279.09
2022-12-16T03:43:55.969Z,98292.69
2022-12-16T03:49:00.230Z,98295.00
2022-12-16T03:54:03.148Z,98293.22
2022-12-16T03:59:06.096Z,98293.78
2022-12-16T04:04:10.467Z,98299.16
2022-12-16T04:09:13.360Z,98304.94
2022-12-16T04:14:34.105Z,98303.22
2022-12-16T04:19:56.556Z,98305.47
2022-12-16T04:25:03.225Z,98310.19
2022-12-16T04:30:23.112Z,98304.00
2022-12-16T04:35:44.558Z,98314.06
2022-12-16T04:41:05.158Z,98320.53
2022-12-16T04:46:25.338Z,98317.97
2022-12-16T04:51:46.981Z,98315.94
2022-12-16T04:57:07.078Z,98325.03
2022-12-16T05:02:27.500Z,98336.81
2022-12-16T05:07:49.406Z,98349.25
2022-12-16T05:13:11.259Z,98351.94
2022-12-16T05:18:33.298Z,98359.88
2022-12-16T05:24:03.322Z,98357.97
2022-12-16T05:29:23.718Z,98358.91
2022-12-16T05:34:43.974Z,98366.19
2022-12-16T05:40:05.706Z,98358.78
2022-12-16T05:45:26.576Z,98356.22
2022-12-16T05:50:48.004Z,98352.44
2022-12-16T05:56:09.547Z,98366.88
2022-12-16T06:01:30.905Z,98371.19
2022-12-16T06:06:51.136Z,98373.88
2022-12-16T06:12:12.980Z,98378.41
2022-12-16T06:17:33.140Z,98383.53
2022-12-16T06:22:53.339Z,98394.97
2022-12-16T06:28:20.133Z,98392.41
2022-12-16T06:33:40.483Z,98403.63
2022-12-16T06:39:00.669Z,98412.13
2022-12-16T06:44:27.700Z,98423.84
2022-12-16T06:49:44.544Z,98441.88
2022-12-16T06:55:04.958Z,98453.88
2022-12-16T07:00:28.608Z,98448.81
2022-12-16T07:05:48.760Z,98458.78
2022-12-16T07:11:16.616Z,98472.53
2022-12-16T07:16:38.931Z,98476.69
2022-12-16T07:21:59.502Z,98486.28
2022-12-16T07:27:19.737Z,98483.44
2022-12-16T07:32:41.441Z,98507.06
2022-12-16T07:38:01.620Z,98518.13
2022-12-16T07:43:22.197Z,98505.16
2022-12-16T07:48:44.311Z,98519.28
2022-12-16T07:54:04.541Z,98526.72
2022-12-16T07:59:24.738Z,98523.88
2022-12-16T08:04:46.561Z,98527.91
2022-12-16T08:10:06.692Z,98535.31
2022-12-16T08:15:28.052Z,98526.66
2022-12-16T08:20:49.979Z,98537.78
2022-12-16T08:26:06.809Z,98544.66
2022-12-16T08:31:27.235Z,98547.72
2022-12-16T08:36:48.891Z,98552.19
2022-12-16T08:42:09.328Z,98566.81
2022-12-16T08:47:29.816Z,98559.16
2022-12-16T08:52:51.407Z,98553.34
2022-12-16T08:58:12.253Z,98574.22
2022-12-16T09:03:33.152Z,98585.78
2022-12-16T09:08:54.865Z,98585.81
2022-12-16T09:14:15.946Z,98605.03
2022-12-16T09:19:37.204Z,98612.44
2022-12-16T09:24:58.880Z,98614.75
2022-12-16T09:30:24.419Z,98618.94
2022-12-16T09:35:44.959Z,98616.72
2022-12-16T09:41:06.425Z,98621.13
2022-12-16T09:46:33.283Z,98619.34
2022-12-16T09:51:55.943Z,98637.25
2022-12-16T09:57:19.991Z,98643.06
2022-12-16T10:02:43.546Z,98631.34
2022-12-16T10:08:13.019Z,98638.47
2022-12-16T10:13:44.834Z,98648.66
2022-12-16T10:19:13.815Z,98641.72
2022-12-16T10:24:48.997Z,98647.22
2022-12-16T10:30:10.369Z,98644.50
2022-12-16T10:35:39.519Z,98643.16
2022-12-16T10:41:00.213Z,98653.06
2022-12-16T10:46:27.142Z,98658.50
2022-12-16T10:51:48.473Z,98666.50
2022-12-16T10:57:15.280Z,98659.66
2022-12-16T11:02:35.591Z,98660.31
2022-12-16T11:07:58.696Z,98663.88
2022-12-16T11:13:35.191Z,98676.88
2022-12-16T11:19:08.458Z,98682.94
2022-12-16T11:24:34.111Z,98675.75
2022-12-16T11:30:07.997Z,98676.06
2022-12-16T11:35:33.914Z,98680.59
2022-12-16T11:40:55.623Z,98687.06
2022-12-16T11:46:18.615Z,98696.50
2022-12-16T11:51:42.626Z,98702.97
2022-12-16T11:57:04.334Z,98702.88
2022-12-16T12:02:34.915Z,98704.38
2022-12-16T12:08:02.911Z,98711.41
2022-12-16T12:13:26.768Z,98710.97
2022-12-16T12:18:59.626Z,98725.03
2022-12-16T12:24:31.170Z,98732.50
2022-12-16T12:30:04.610Z,98735.75
2022-12-16T12:35:44.267Z,98742.44
2022-12-16T12:41:15.030Z,98745.09
2022-12-16T12:46:53.428Z,98744.94
2022-12-16T12:52:22.203Z,98744.13
2022-12-16T12:57:46.736Z,98748.56
2022-12-16T13:03:19.095Z,98757.66
2022-12-16T13:09:03.101Z,98771.16
2022-12-16T13:15:10.315Z,98779.97
2022-12-16T13:20:55.368Z,98782.66
2022-12-16T13:26:23.898Z,98790.03
2022-12-16T13:31:47.636Z,98800.00
2022-12-16T13:37:23.571Z,98805.69
2022-12-16T13:43:10.212Z,98808.69
2022-12-16T13:48:53.959Z,98823.94
2022-12-16T13:54:18.122Z,98833.38
2022-12-16T13:59:41.996Z,98841.75
2022-12-16T14:05:06.568Z,98857.38
2022-12-16T14:10:42.409Z,98854.66
2022-12-16T14:16:17.199Z,98879.09
2022-12-16T14:21:47.289Z,98885.88
2022-12-16T14:27:09.691Z,98891.56
2022-12-16T14:32:44.979Z,98889.63
2022-12-16T14:38:06.964Z,98897.94
2022-12-16T14:43:31.300Z,98913.38
2022-12-16T14:48:54.290Z,98914.94
2022-12-16T14:54:34.682Z,98927.34
2022-12-16T14:59:54.898Z,98933.13
2022-12-16T15:05:15.669Z,98940.22
2022-12-16T15:10:39.767Z,98941.38
2022-12-16T15:16:03.285Z,98954.63
2022-12-16T15:21:26.162Z,98950.56
2022-12-16T15:26:51.250Z,98967.59
2022-12-16T15:32:11.739Z,98971.06
2022-12-16T15:37:38.056Z,98986.69
2022-12-16T15:43:00.282Z,98988.66
2022-12-16T15:48:31.236Z,98994.19
2022-12-16T15:53:56.021Z,99004.03
2022-12-16T16:04:49.415Z,99024.28
2022-12-16T16:10:15.222Z,99040.88
2022-12-16T16:15:36.821Z,99033.66
2022-12-16T16:20:58.972Z,99035.63
2022-12-16T16:26:19.783Z,99044.47
2022-12-16T16:31:40.390Z,99043.22
2022-12-16T16:37:02.351Z,99049.97
2022-12-16T16:42:34.199Z,99052.63
2022-12-16T16:47:54.557Z,99059.50
2022-12-16T16:53:16.386Z,99072.78
2022-12-16T16:58:44.400Z,99065.31
2022-12-16T17:04:04.885Z,99074.16
2022-12-16T17:09:32.111Z,99080.00
2022-12-16T17:14:52.701Z,99088.22
2022-12-16T17:20:12.909Z,99106.50
2022-12-16T17:25:34.903Z,99109.09
2022-12-16T17:30:55.320Z,99111.59
2022-12-16T17:36:16.078Z,99134.44
2022-12-16T17:41:38.022Z,99127.94
2022-12-16T17:46:58.343Z,99132.38
2022-12-16T17:52:18.903Z,99136.78
2022-12-16T17:57:55.138Z,99147.97
2022-12-16T18:03:15.835Z,99157.97
2022-12-16T18:08:36.355Z,99155.53
2022-12-16T18:13:58.477Z,99156.81
2022-12-16T18:19:19.023Z,99158.09
2022-12-16T18:24:42.522Z,99164.38
2022-12-16T18:30:08.372Z,99165.91
2022-12-16T18:35:28.796Z,99175.13
2022-12-16T18:40:49.176Z,99183.13
2022-12-16T18:46:14.306Z,99180.34
2022-12-16T18:51:34.734Z,99182.09
2022-12-16T18:56:55.223Z,99189.19
2022-12-16T19:02:17.187Z,99191.16
2022-12-16T19:07:45.750Z,99192.91
2022-12-16T19:13:20.592Z,99196.34
2022-12-16T19:18:42.623Z,99204.56
2022-12-16T19:24:03.053Z,99206.91
2022-12-16T19:29:23.138Z,99201.44
2022-12-16T19:34:44.870Z,99208.66
2022-12-16T19:40:05.292Z,99210.63
2022-12-16T19:45:26.707Z,99219.25
2022-12-16T19:50:48.542Z,99219.50
2022-12-16T19:56:13.753Z,99240.09
2022-12-16T20:01:34.051Z,99245.22
2022-12-16T20:06:56.616Z,99258.16
2022-12-16T20:12:17.149Z,99266.19
2022-12-16T20:17:37.537Z,99272.44
2022-12-16T20:22:59.272Z,99271.41
2022-12-16T20:28:24.765Z,99277.03
2022-12-16T20:33:45.556Z,99294.03
2022-12-16T20:39:07.432Z,99293.34
2022-12-16T20:44:27.683Z,99304.03
2022-12-16T20:49:47.744Z,99309.16
2022-12-16T20:55:09.325Z,99311.03
2022-12-16T21:00:31.692Z,99310.81
2022-12-16T21:05:52.455Z,99324.53
2022-12-16T21:11:17.729Z,99321.50
2022-12-16T21:16:37.950Z,99332.47
2022-12-16T21:21:58.245Z,99337.78
2022-12-16T21:27:19.801Z,99348.28
2022-12-16T21:32:44.363Z,99345.78
2022-12-16T21:38:04.949Z,99354.41
2022-12-16T21:43:26.604Z,99361.19
2022-12-16T21:48:47.000Z,99365.25
2022-12-16T21:54:09.726Z,99367.72
2022-12-16T21:59:45.851Z,99382.09
2022-12-16T22:05:06.047Z,99395.13
2022-12-16T22:10:26.955Z,99402.03
2022-12-16T22:15:48.477Z,99402.41
2022-12-16T22:21:15.446Z,99396.84
2022-12-16T22:26:35.945Z,99404.16
2022-12-16T22:31:58.289Z,99404.72
2022-12-16T22:37:18.730Z,99411.00
2022-12-16T22:42:39.029Z,99418.94
2022-12-16T22:48:00.739Z,99426.38
2022-12-16T22:53:20.977Z,99434.41
2022-12-16T22:58:41.276Z,99424.00
2022-12-16T23:04:02.772Z,99435.66
2022-12-16T23:09:23.037Z,99437.53
2022-12-16T23:14:44.075Z,99431.28
2022-12-16T23:20:05.657Z,99445.47
2022-12-16T23:25:26.493Z,99435.53
2022-12-16T23:30:46.945Z,99444.34
2022-12-16T23:36:08.779Z,99440.84
2022-12-16T23:41:29.966Z,99444.81
2022-12-16T23:46:50.426Z,99454.13
2022-12-16T23:52:12.094Z,99462.84
2022-12-16T23:57:32.341Z,99456.34
